sensor_id;sensor_type;location;lat;lon;timestamp;temperature;humidity
13572;DHT22;6857;53.484;10.216;2022-08-01T00:00:12;18.30;99.90
13572;DHT22;6857;53.484;10.216;2022-08-01T00:02:39;18.30;99.90
13572;DHT22;6857;53.484;10.216;2022-08-01T00:05:05;18.40;99.90
13572;DHT22;6857;53.484;10.216;2022-08-01T00:07:32;18.40;99.90
13572;DHT22;6857;53.484;10.216;2022-08-01T00:09:57;18.40;99.90
13572;DHT22;6857;53.484;10.216;2022-08-01T00:12:23;18.50;99.90
13572;DHT22;6857;53.484;10.216;2022-08-01T00:14:49;18.50;99.90
13572;DHT22;6857;53.484;10.216;2022-08-01T00:17:14;18.40;99.90
13572;DHT22;6857;53.484;10.216;2022-08-01T00:19:40;18.40;99.90
13572;DHT22;6857;53.484;10.216;2022-08-01T00:22:06;18.50;99.90
13572;DHT22;6857;53.484;10.216;2022-08-01T00:24:31;18.50;99.90
13572;DHT22;6857;53.484;10.216;2022-08-01T00:26:57;18.60;99.90
13572;DHT22;6857;53.484;10.216;2022-08-01T00:29:22;18.60;99.90
13572;DHT22;6857;53.484;10.216;2022-08-01T00:31:48;18.50;99.90
13572;DHT22;6857;53.484;10.216;2022-08-01T00:34:13;18.60;99.90
13572;DHT22;6857;53.484;10.216;2022-08-01T00:36:39;18.60;99.90
13572;DHT22;6857;53.484;10.216;2022-08-01T00:39:05;18.60;99.90
13572;DHT22;6857;53.484;10.216;2022-08-01T00:41:30;18.50;99.90
13572;DHT22;6857;53.484;10.216;2022-08-01T00:43:56;18.50;99.90
13572;DHT22;6857;53.484;10.216;2022-08-01T00:46:21;18.50;99.90
13572;DHT22;6857;53.484;10.216;2022-08-01T00:48:47;18.50;99.90
13572;DHT22;6857;53.484;10.216;2022-08-01T00:51:13;18.50;99.90
13572;DHT22;6857;53.484;10.216;2022-08-01T00:53:39;18.50;99.90
13572;DHT22;6857;53.484;10.216;2022-08-01T00:56:06;18.50;99.90
13572;DHT22;6857;53.484;10.216;2022-08-01T00:58:32;18.50;99.90
13572;DHT22;6857;53.484;10.216;2022-08-01T01:00:59;18.60;99.90
13572;DHT22;6857;53.484;10.216;2022-08-01T01:03:25;18.60;99.90
13572;DHT22;6857;53.484;10.216;2022-08-01T01:06:17;18.50;99.90
13572;DHT22;6857;53.484;10.216;2022-08-01T01:09:15;18.50;99.90
13572;DHT22;6857;53.484;10.216;2022-08-01T01:12:06;18.50;99.90
13572;DHT22;6857;53.484;10.216;2022-08-01T01:14:43;18.50;99.90
13572;DHT22;6857;53.484;10.216;2022-08-01T01:17:14;18.50;99.90
13572;DHT22;6857;53.484;10.216;2022-08-01T01:19:45;18.50;99.90
13572;DHT22;6857;53.484;10.216;2022-08-01T01:22:22;18.50;99.90
13572;DHT22;6857;53.484;10.216;2022-08-01T01:25:10;18.50;99.90
13572;DHT22;6857;53.484;10.216;2022-08-01T01:30:23;18.50;99.90
13572;DHT22;6857;53.484;10.216;2022-08-01T01:32:50;18.50;99.90
13572;DHT22;6857;53.484;10.216;2022-08-01T01:35:24;18.50;99.90
13572;DHT22;6857;53.484;10.216;2022-08-01T01:37:54;18.50;99.90
13572;DHT22;6857;53.484;10.216;2022-08-01T01:40:22;18.50;99.90
13572;DHT22;6857;53.484;10.216;2022-08-01T01:42:49;18.50;99.90
13572;DHT22;6857;53.484;10.216;2022-08-01T01:45:18;18.50;99.90
13572;DHT22;6857;53.484;10.216;2022-08-01T01:47:45;18.60;99.90
13572;DHT22;6857;53.484;10.216;2022-08-01T01:50:11;18.60;99.90
13572;DHT22;6857;53.484;10.216;2022-08-01T01:52:39;18.50;99.90
13572;DHT22;6857;53.484;10.216;2022-08-01T01:55:06;18.50;99.90
13572;DHT22;6857;53.484;10.216;2022-08-01T01:57:38;18.60;99.90
13572;DHT22;6857;53.484;10.216;2022-08-01T02:00:06;18.60;99.90
13572;DHT22;6857;53.484;10.216;2022-08-01T02:02:34;18.60;99.90
13572;DHT22;6857;53.484;10.216;2022-08-01T02:05:01;18.60;99.90
13572;DHT22;6857;53.484;10.216;2022-08-01T02:07:28;18.50;99.90
13572;DHT22;6857;53.484;10.216;2022-08-01T02:09:54;18.50;99.90
13572;DHT22;6857;53.484;10.216;2022-08-01T02:12:21;18.50;99.90
13572;DHT22;6857;53.484;10.216;2022-08-01T02:14:47;18.50;99.90
13572;DHT22;6857;53.484;10.216;2022-08-01T02:17:17;18.40;99.90
13572;DHT22;6857;53.484;10.216;2022-08-01T02:19:44;18.40;99.90
13572;DHT22;6857;53.484;10.216;2022-08-01T02:22:11;18.30;99.90
13572;DHT22;6857;53.484;10.216;2022-08-01T02:27:24;18.30;99.90
13572;DHT22;6857;53.484;10.216;2022-08-01T02:29:58;18.30;99.90
13572;DHT22;6857;53.484;10.216;2022-08-01T02:32:48;18.30;99.90
13572;DHT22;6857;53.484;10.216;2022-08-01T02:35:37;18.30;99.90
13572;DHT22;6857;53.484;10.216;2022-08-01T02:38:05;18.20;99.90
13572;DHT22;6857;53.484;10.216;2022-08-01T02:40:33;18.20;99.90
13572;DHT22;6857;53.484;10.216;2022-08-01T02:43:01;18.20;99.90
13572;DHT22;6857;53.484;10.216;2022-08-01T02:45:27;18.20;99.90
13572;DHT22;6857;53.484;10.216;2022-08-01T02:48:01;18.20;99.90
13572;DHT22;6857;53.484;10.216;2022-08-01T02:50:31;18.10;99.90
13572;DHT22;6857;53.484;10.216;2022-08-01T02:52:58;18.10;99.90
13572;DHT22;6857;53.484;10.216;2022-08-01T02:55:25;18.10;99.90
13572;DHT22;6857;53.484;10.216;2022-08-01T02:57:53;18.10;99.90
13572;DHT22;6857;53.484;10.216;2022-08-01T03:00:20;18.00;99.90
13572;DHT22;6857;53.484;10.216;2022-08-01T03:02:46;18.00;99.90
13572;DHT22;6857;53.484;10.216;2022-08-01T03:05:14;18.00;99.90
13572;DHT22;6857;53.484;10.216;2022-08-01T03:07:41;18.00;99.90
13572;DHT22;6857;53.484;10.216;2022-08-01T03:10:08;18.00;99.90
13572;DHT22;6857;53.484;10.216;2022-08-01T03:12:35;18.00;99.90
13572;DHT22;6857;53.484;10.216;2022-08-01T03:15:03;18.00;99.90
13572;DHT22;6857;53.484;10.216;2022-08-01T03:17:30;18.00;99.90
13572;DHT22;6857;53.484;10.216;2022-08-01T03:19:59;18.00;99.90
13572;DHT22;6857;53.484;10.216;2022-08-01T03:22:27;18.00;99.90
13572;DHT22;6857;53.484;10.216;2022-08-01T03:24:56;18.00;99.90
13572;DHT22;6857;53.484;10.216;2022-08-01T03:27:25;18.00;99.90
13572;DHT22;6857;53.484;10.216;2022-08-01T03:29:52;18.00;99.90
13572;DHT22;6857;53.484;10.216;2022-08-01T03:32:20;18.00;99.90
13572;DHT22;6857;53.484;10.216;2022-08-01T03:34:46;18.00;99.90
13572;DHT22;6857;53.484;10.216;2022-08-01T03:37:41;18.00;99.90
13572;DHT22;6857;53.484;10.216;2022-08-01T03:42:41;18.00;99.90
13572;DHT22;6857;53.484;10.216;2022-08-01T03:45:09;18.10;99.90
13572;DHT22;6857;53.484;10.216;2022-08-01T03:47:35;18.00;99.90
13572;DHT22;6857;53.484;10.216;2022-08-01T03:50:04;18.00;99.90
13572;DHT22;6857;53.484;10.216;2022-08-01T03:52:31;18.00;99.90
13572;DHT22;6857;53.484;10.216;2022-08-01T03:55:01;18.00;99.90
13572;DHT22;6857;53.484;10.216;2022-08-01T03:57:28;18.00;99.90
13572;DHT22;6857;53.484;10.216;2022-08-01T03:59:56;18.10;99.90
13572;DHT22;6857;53.484;10.216;2022-08-01T04:02:23;18.10;99.90
13572;DHT22;6857;53.484;10.216;2022-08-01T04:04:48;18.10;99.90
13572;DHT22;6857;53.484;10.216;2022-08-01T04:07:24;18.10;99.90
13572;DHT22;6857;53.484;10.216;2022-08-01T04:09:50;18.20;99.90
13572;DHT22;6857;53.484;10.216;2022-08-01T04:12:16;18.20;99.90
13572;DHT22;6857;53.484;10.216;2022-08-01T04:14:41;18.20;99.90
13572;DHT22;6857;53.484;10.216;2022-08-01T04:17:07;18.10;99.90
13572;DHT22;6857;53.484;10.216;2022-08-01T04:19:32;18.20;99.90
13572;DHT22;6857;53.484;10.216;2022-08-01T04:21:58;18.20;99.90
13572;DHT22;6857;53.484;10.216;2022-08-01T04:24:25;18.20;99.90
13572;DHT22;6857;53.484;10.216;2022-08-01T04:26:54;18.20;99.90
13572;DHT22;6857;53.484;10.216;2022-08-01T04:29:20;18.30;99.90
13572;DHT22;6857;53.484;10.216;2022-08-01T04:31:49;18.30;99.90
13572;DHT22;6857;53.484;10.216;2022-08-01T04:34:17;18.30;99.90
13572;DHT22;6857;53.484;10.216;2022-08-01T04:36:45;18.30;99.90
13572;DHT22;6857;53.484;10.216;2022-08-01T04:39:12;18.40;99.90
13572;DHT22;6857;53.484;10.216;2022-08-01T04:41:39;18.40;99.90
13572;DHT22;6857;53.484;10.216;2022-08-01T04:44:05;18.40;99.90
13572;DHT22;6857;53.484;10.216;2022-08-01T04:46:33;18.50;99.90
13572;DHT22;6857;53.484;10.216;2022-08-01T04:48:59;18.50;99.90
13572;DHT22;6857;53.484;10.216;2022-08-01T04:51:25;18.50;99.90
13572;DHT22;6857;53.484;10.216;2022-08-01T04:53:51;18.50;99.90
13572;DHT22;6857;53.484;10.216;2022-08-01T04:56:18;18.60;99.90
13572;DHT22;6857;53.484;10.216;2022-08-01T04:58:44;18.60;99.90
13572;DHT22;6857;53.484;10.216;2022-08-01T05:01:10;18.60;99.90
13572;DHT22;6857;53.484;10.216;2022-08-01T05:03:36;18.50;99.90
13572;DHT22;6857;53.484;10.216;2022-08-01T05:06:02;18.50;99.90
13572;DHT22;6857;53.484;10.216;2022-08-01T05:08:28;18.60;99.90
13572;DHT22;6857;53.484;10.216;2022-08-01T05:10:54;18.60;99.90
13572;DHT22;6857;53.484;10.216;2022-08-01T05:13:20;18.70;99.90
13572;DHT22;6857;53.484;10.216;2022-08-01T05:15:45;18.60;99.90
13572;DHT22;6857;53.484;10.216;2022-08-01T05:18:11;18.70;99.90
13572;DHT22;6857;53.484;10.216;2022-08-01T05:20:37;18.60;99.90
13572;DHT22;6857;53.484;10.216;2022-08-01T05:23:05;18.60;99.90
13572;DHT22;6857;53.484;10.216;2022-08-01T05:25:31;18.70;99.90
13572;DHT22;6857;53.484;10.216;2022-08-01T05:27:57;18.70;99.90
13572;DHT22;6857;53.484;10.216;2022-08-01T05:30:22;18.40;99.90
13572;DHT22;6857;53.484;10.216;2022-08-01T05:32:48;18.70;99.90
13572;DHT22;6857;53.484;10.216;2022-08-01T05:35:14;18.60;99.90
13572;DHT22;6857;53.484;10.216;2022-08-01T05:37:39;18.50;99.90
13572;DHT22;6857;53.484;10.216;2022-08-01T05:40:05;18.30;99.90
13572;DHT22;6857;53.484;10.216;2022-08-01T05:42:31;18.40;99.90
13572;DHT22;6857;53.484;10.216;2022-08-01T05:44:57;18.00;99.90
13572;DHT22;6857;53.484;10.216;2022-08-01T05:47:22;17.90;99.90
13572;DHT22;6857;53.484;10.216;2022-08-01T05:49:48;17.90;99.90
13572;DHT22;6857;53.484;10.216;2022-08-01T05:52:14;17.80;99.90
13572;DHT22;6857;53.484;10.216;2022-08-01T05:54:39;17.80;99.90
13572;DHT22;6857;53.484;10.216;2022-08-01T05:57:05;17.70;99.90
13572;DHT22;6857;53.484;10.216;2022-08-01T05:59:31;17.30;99.90
13572;DHT22;6857;53.484;10.216;2022-08-01T06:01:56;17.70;99.90
13572;DHT22;6857;53.484;10.216;2022-08-01T06:04:22;17.80;99.90
13572;DHT22;6857;53.484;10.216;2022-08-01T06:06:47;17.70;99.90
13572;DHT22;6857;53.484;10.216;2022-08-01T06:09:13;17.80;99.90
13572;DHT22;6857;53.484;10.216;2022-08-01T06:11:39;17.80;99.90
13572;DHT22;6857;53.484;10.216;2022-08-01T06:14:04;17.90;99.90
13572;DHT22;6857;53.484;10.216;2022-08-01T06:16:30;17.90;99.90
13572;DHT22;6857;53.484;10.216;2022-08-01T06:18:56;17.80;99.90
13572;DHT22;6857;53.484;10.216;2022-08-01T06:21:21;17.90;99.90
13572;DHT22;6857;53.484;10.216;2022-08-01T06:23:47;18.00;99.90
13572;DHT22;6857;53.484;10.216;2022-08-01T06:26:12;18.10;99.90
13572;DHT22;6857;53.484;10.216;2022-08-01T06:28:38;18.20;99.90
13572;DHT22;6857;53.484;10.216;2022-08-01T06:31:04;18.40;99.90
13572;DHT22;6857;53.484;10.216;2022-08-01T06:33:30;18.50;99.90
13572;DHT22;6857;53.484;10.216;2022-08-01T06:35:55;18.60;99.90
13572;DHT22;6857;53.484;10.216;2022-08-01T06:38:21;18.80;99.90
13572;DHT22;6857;53.484;10.216;2022-08-01T06:40:47;19.00;99.90
13572;DHT22;6857;53.484;10.216;2022-08-01T06:43:13;19.00;99.90
13572;DHT22;6857;53.484;10.216;2022-08-01T06:45:39;19.00;99.90
13572;DHT22;6857;53.484;10.216;2022-08-01T06:48:05;19.10;99.90
13572;DHT22;6857;53.484;10.216;2022-08-01T06:50:32;19.20;99.90
13572;DHT22;6857;53.484;10.216;2022-08-01T06:52:58;19.20;99.90
13572;DHT22;6857;53.484;10.216;2022-08-01T06:55:23;19.10;99.90
13572;DHT22;6857;53.484;10.216;2022-08-01T06:57:50;19.00;99.90
13572;DHT22;6857;53.484;10.216;2022-08-01T07:00:17;19.10;99.90
13572;DHT22;6857;53.484;10.216;2022-08-01T07:02:46;19.00;99.90
13572;DHT22;6857;53.484;10.216;2022-08-01T07:05:12;18.90;99.90
13572;DHT22;6857;53.484;10.216;2022-08-01T07:07:38;19.00;99.90
13572;DHT22;6857;53.484;10.216;2022-08-01T07:10:04;19.00;99.90
13572;DHT22;6857;53.484;10.216;2022-08-01T07:12:30;18.80;99.90
13572;DHT22;6857;53.484;10.216;2022-08-01T07:14:56;18.70;99.90
13572;DHT22;6857;53.484;10.216;2022-08-01T07:17:21;18.70;99.90
13572;DHT22;6857;53.484;10.216;2022-08-01T07:19:47;18.60;99.90
13572;DHT22;6857;53.484;10.216;2022-08-01T07:22:13;18.90;99.90
13572;DHT22;6857;53.484;10.216;2022-08-01T07:24:40;18.90;99.90
13572;DHT22;6857;53.484;10.216;2022-08-01T07:27:07;19.10;99.90
13572;DHT22;6857;53.484;10.216;2022-08-01T07:29:32;19.30;99.90
13572;DHT22;6857;53.484;10.216;2022-08-01T07:31:58;19.20;99.90
13572;DHT22;6857;53.484;10.216;2022-08-01T07:34:24;19.10;99.90
13572;DHT22;6857;53.484;10.216;2022-08-01T07:36:51;19.10;99.90
13572;DHT22;6857;53.484;10.216;2022-08-01T07:39:16;19.10;99.90
13572;DHT22;6857;53.484;10.216;2022-08-01T07:41:42;19.10;99.90
13572;DHT22;6857;53.484;10.216;2022-08-01T07:44:08;19.30;99.90
13572;DHT22;6857;53.484;10.216;2022-08-01T07:46:33;19.40;99.90
13572;DHT22;6857;53.484;10.216;2022-08-01T07:48:59;19.30;99.90
13572;DHT22;6857;53.484;10.216;2022-08-01T07:51:24;19.10;99.90
13572;DHT22;6857;53.484;10.216;2022-08-01T07:53:50;19.00;99.90
13572;DHT22;6857;53.484;10.216;2022-08-01T07:56:16;19.10;99.90
13572;DHT22;6857;53.484;10.216;2022-08-01T07:58:41;19.10;99.90
13572;DHT22;6857;53.484;10.216;2022-08-01T08:01:07;19.10;99.90
13572;DHT22;6857;53.484;10.216;2022-08-01T08:03:32;19.10;99.90
13572;DHT22;6857;53.484;10.216;2022-08-01T08:05:58;19.20;99.90
13572;DHT22;6857;53.484;10.216;2022-08-01T08:08:24;19.30;99.90
13572;DHT22;6857;53.484;10.216;2022-08-01T08:10:49;19.40;99.90
13572;DHT22;6857;53.484;10.216;2022-08-01T08:13:15;19.40;99.90
13572;DHT22;6857;53.484;10.216;2022-08-01T08:15:40;19.40;99.90
13572;DHT22;6857;53.484;10.216;2022-08-01T08:18:06;19.50;99.90
13572;DHT22;6857;53.484;10.216;2022-08-01T08:20:31;19.30;99.90
13572;DHT22;6857;53.484;10.216;2022-08-01T08:22:57;19.40;99.90
13572;DHT22;6857;53.484;10.216;2022-08-01T08:25:24;19.30;99.90
13572;DHT22;6857;53.484;10.216;2022-08-01T08:27:50;19.40;99.90
13572;DHT22;6857;53.484;10.216;2022-08-01T08:30:16;19.40;99.90
13572;DHT22;6857;53.484;10.216;2022-08-01T08:32:42;19.40;99.90
13572;DHT22;6857;53.484;10.216;2022-08-01T08:35:08;19.40;99.90
13572;DHT22;6857;53.484;10.216;2022-08-01T08:37:36;19.50;99.90
13572;DHT22;6857;53.484;10.216;2022-08-01T08:40:03;19.60;99.90
13572;DHT22;6857;53.484;10.216;2022-08-01T08:42:30;19.60;99.90
13572;DHT22;6857;53.484;10.216;2022-08-01T08:44:55;19.80;99.90
13572;DHT22;6857;53.484;10.216;2022-08-01T08:47:22;19.80;99.90
13572;DHT22;6857;53.484;10.216;2022-08-01T08:49:55;19.80;99.90
13572;DHT22;6857;53.484;10.216;2022-08-01T08:52:21;19.80;99.90
13572;DHT22;6857;53.484;10.216;2022-08-01T08:54:48;19.70;99.90
13572;DHT22;6857;53.484;10.216;2022-08-01T08:57:15;19.70;99.90
13572;DHT22;6857;53.484;10.216;2022-08-01T08:59:42;19.80;99.90
13572;DHT22;6857;53.484;10.216;2022-08-01T09:02:09;19.80;99.90
13572;DHT22;6857;53.484;10.216;2022-08-01T09:04:36;19.80;99.90
13572;DHT22;6857;53.484;10.216;2022-08-01T09:07:04;19.60;99.90
13572;DHT22;6857;53.484;10.216;2022-08-01T09:09:30;19.50;99.90
13572;DHT22;6857;53.484;10.216;2022-08-01T09:11:56;19.60;99.90
13572;DHT22;6857;53.484;10.216;2022-08-01T09:14:22;19.70;99.90
13572;DHT22;6857;53.484;10.216;2022-08-01T09:17:00;19.80;99.90
13572;DHT22;6857;53.484;10.216;2022-08-01T09:19:37;19.80;99.90
13572;DHT22;6857;53.484;10.216;2022-08-01T09:22:05;20.00;99.90
13572;DHT22;6857;53.484;10.216;2022-08-01T09:24:32;20.00;99.90
13572;DHT22;6857;53.484;10.216;2022-08-01T09:26:59;20.20;99.90
13572;DHT22;6857;53.484;10.216;2022-08-01T09:29:27;20.60;99.90
13572;DHT22;6857;53.484;10.216;2022-08-01T09:31:53;20.50;99.90
13572;DHT22;6857;53.484;10.216;2022-08-01T09:34:29;20.50;99.90
13572;DHT22;6857;53.484;10.216;2022-08-01T09:36:59;20.60;99.90
13572;DHT22;6857;53.484;10.216;2022-08-01T09:39:27;20.10;99.90
13572;DHT22;6857;53.484;10.216;2022-08-01T09:41:54;20.30;99.90
13572;DHT22;6857;53.484;10.216;2022-08-01T09:44:39;20.10;99.90
13572;DHT22;6857;53.484;10.216;2022-08-01T09:47:05;20.40;99.90
13572;DHT22;6857;53.484;10.216;2022-08-01T09:49:36;20.60;99.90
13572;DHT22;6857;53.484;10.216;2022-08-01T09:52:20;20.60;99.90
13572;DHT22;6857;53.484;10.216;2022-08-01T09:54:57;20.70;99.90
13572;DHT22;6857;53.484;10.216;2022-08-01T09:57:24;21.00;99.90
13572;DHT22;6857;53.484;10.216;2022-08-01T09:59:52;21.20;99.90
13572;DHT22;6857;53.484;10.216;2022-08-01T10:02:34;21.10;99.90
13572;DHT22;6857;53.484;10.216;2022-08-01T10:05:02;20.90;99.90
13572;DHT22;6857;53.484;10.216;2022-08-01T10:07:28;21.20;99.90
13572;DHT22;6857;53.484;10.216;2022-08-01T10:09:54;21.10;99.90
13572;DHT22;6857;53.484;10.216;2022-08-01T10:12:22;19.20;99.90
13572;DHT22;6857;53.484;10.216;2022-08-01T10:14:50;21.10;99.90
13572;DHT22;6857;53.484;10.216;2022-08-01T10:17:19;20.80;99.90
13572;DHT22;6857;53.484;10.216;2022-08-01T10:19:45;20.90;99.90
13572;DHT22;6857;53.484;10.216;2022-08-01T10:22:12;20.80;99.90
13572;DHT22;6857;53.484;10.216;2022-08-01T10:24:46;20.60;99.90
13572;DHT22;6857;53.484;10.216;2022-08-01T10:27:14;20.90;99.90
13572;DHT22;6857;53.484;10.216;2022-08-01T10:29:50;21.10;99.90
13572;DHT22;6857;53.484;10.216;2022-08-01T10:32:17;20.40;99.90
13572;DHT22;6857;53.484;10.216;2022-08-01T10:34:43;21.40;99.90
13572;DHT22;6857;53.484;10.216;2022-08-01T10:37:09;21.50;99.90
13572;DHT22;6857;53.484;10.216;2022-08-01T10:39:35;21.60;99.90
13572;DHT22;6857;53.484;10.216;2022-08-01T10:42:02;21.70;99.90
13572;DHT22;6857;53.484;10.216;2022-08-01T10:44:29;21.70;99.90
13572;DHT22;6857;53.484;10.216;2022-08-01T10:47:09;21.60;99.90
13572;DHT22;6857;53.484;10.216;2022-08-01T10:49:43;21.30;99.90
13572;DHT22;6857;53.484;10.216;2022-08-01T10:52:19;21.60;99.90
13572;DHT22;6857;53.484;10.216;2022-08-01T10:54:45;22.10;99.90
13572;DHT22;6857;53.484;10.216;2022-08-01T10:57:12;22.20;99.90
13572;DHT22;6857;53.484;10.216;2022-08-01T10:59:51;22.30;99.90
13572;DHT22;6857;53.484;10.216;2022-08-01T11:02:32;22.10;99.90
13572;DHT22;6857;53.484;10.216;2022-08-01T11:05:09;22.00;99.90
13572;DHT22;6857;53.484;10.216;2022-08-01T11:07:43;21.80;99.90
13572;DHT22;6857;53.484;10.216;2022-08-01T11:10:39;21.80;99.90
13572;DHT22;6857;53.484;10.216;2022-08-01T11:13:06;21.90;99.90
13572;DHT22;6857;53.484;10.216;2022-08-01T11:15:40;22.00;99.90
13572;DHT22;6857;53.484;10.216;2022-08-01T11:18:29;22.00;99.90
13572;DHT22;6857;53.484;10.216;2022-08-01T11:21:00;22.00;99.90
13572;DHT22;6857;53.484;10.216;2022-08-01T11:23:27;22.10;99.90
13572;DHT22;6857;53.484;10.216;2022-08-01T11:28:24;22.10;99.90
13572;DHT22;6857;53.484;10.216;2022-08-01T11:31:24;22.20;99.90
13572;DHT22;6857;53.484;10.216;2022-08-01T11:38:39;22.40;99.90
13572;DHT22;6857;53.484;10.216;2022-08-01T11:41:24;22.40;99.90
13572;DHT22;6857;53.484;10.216;2022-08-01T11:46:52;22.40;99.90
13572;DHT22;6857;53.484;10.216;2022-08-01T11:49:30;22.40;99.90
13572;DHT22;6857;53.484;10.216;2022-08-01T11:54:36;22.30;99.90
13572;DHT22;6857;53.484;10.216;2022-08-01T11:57:08;22.40;99.90
13572;DHT22;6857;53.484;10.216;2022-08-01T11:59:49;22.40;99.90
13572;DHT22;6857;53.484;10.216;2022-08-01T12:04:51;22.50;99.90
13572;DHT22;6857;53.484;10.216;2022-08-01T12:07:18;22.60;99.90
13572;DHT22;6857;53.484;10.216;2022-08-01T12:09:43;22.60;99.90
13572;DHT22;6857;53.484;10.216;2022-08-01T12:12:10;23.00;99.90
13572;DHT22;6857;53.484;10.216;2022-08-01T12:14:35;23.80;99.90
13572;DHT22;6857;53.484;10.216;2022-08-01T12:17:01;24.60;99.70
13572;DHT22;6857;53.484;10.216;2022-08-01T12:19:27;25.10;97.80
13572;DHT22;6857;53.484;10.216;2022-08-01T12:22:09;25.30;97.10
13572;DHT22;6857;53.484;10.216;2022-08-01T12:24:36;25.20;96.70
13572;DHT22;6857;53.484;10.216;2022-08-01T12:27:03;24.80;97.40
13572;DHT22;6857;53.484;10.216;2022-08-01T12:29:40;24.90;98.20
13572;DHT22;6857;53.484;10.216;2022-08-01T12:32:28;25.20;97.20
13572;DHT22;6857;53.484;10.216;2022-08-01T12:34:58;25.40;96.00
13572;DHT22;6857;53.484;10.216;2022-08-01T12:37:25;25.40;95.60
13572;DHT22;6857;53.484;10.216;2022-08-01T12:39:51;25.30;95.20
13572;DHT22;6857;53.484;10.216;2022-08-01T12:42:17;25.00;96.00
13572;DHT22;6857;53.484;10.216;2022-08-01T12:44:45;24.80;96.80
13572;DHT22;6857;53.484;10.216;2022-08-01T12:47:12;24.80;97.30
13572;DHT22;6857;53.484;10.216;2022-08-01T12:49:38;24.70;97.70
13572;DHT22;6857;53.484;10.216;2022-08-01T12:52:05;24.70;98.50
13572;DHT22;6857;53.484;10.216;2022-08-01T12:57:34;24.70;97.80
13572;DHT22;6857;53.484;10.216;2022-08-01T13:02:43;24.40;96.80
13572;DHT22;6857;53.484;10.216;2022-08-01T13:05:10;24.20;97.10
13572;DHT22;6857;53.484;10.216;2022-08-01T13:07:48;24.30;96.50
13572;DHT22;6857;53.484;10.216;2022-08-01T13:10:23;24.40;96.90
13572;DHT22;6857;53.484;10.216;2022-08-01T13:12:54;24.50;97.00
13572;DHT22;6857;53.484;10.216;2022-08-01T13:15:22;24.30;97.00
13572;DHT22;6857;53.484;10.216;2022-08-01T13:17:50;24.20;97.30
13572;DHT22;6857;53.484;10.216;2022-08-01T13:20:45;24.20;97.30
13572;DHT22;6857;53.484;10.216;2022-08-01T13:23:13;24.00;97.30
13572;DHT22;6857;53.484;10.216;2022-08-01T13:25:55;24.30;96.80
13572;DHT22;6857;53.484;10.216;2022-08-01T13:28:26;24.50;96.80
13572;DHT22;6857;53.484;10.216;2022-08-01T13:33:20;25.20;95.90
13572;DHT22;6857;53.484;10.216;2022-08-01T13:35:46;25.00;95.60
13572;DHT22;6857;53.484;10.216;2022-08-01T13:38:13;25.00;96.30
13572;DHT22;6857;53.484;10.216;2022-08-01T13:40:38;25.40;94.90
13572;DHT22;6857;53.484;10.216;2022-08-01T13:43:04;25.30;94.60
13572;DHT22;6857;53.484;10.216;2022-08-01T13:45:29;24.90;93.60
13572;DHT22;6857;53.484;10.216;2022-08-01T13:47:55;24.70;93.90
13572;DHT22;6857;53.484;10.216;2022-08-01T13:50:20;24.70;93.60
13572;DHT22;6857;53.484;10.216;2022-08-01T13:52:46;24.50;94.10
13572;DHT22;6857;53.484;10.216;2022-08-01T13:55:12;24.30;94.40
13572;DHT22;6857;53.484;10.216;2022-08-01T13:57:37;24.30;94.40
13572;DHT22;6857;53.484;10.216;2022-08-01T14:00:05;24.10;94.40
13572;DHT22;6857;53.484;10.216;2022-08-01T14:02:31;24.10;94.60
13572;DHT22;6857;53.484;10.216;2022-08-01T14:04:57;24.30;94.10
13572;DHT22;6857;53.484;10.216;2022-08-01T14:07:24;24.20;94.50
13572;DHT22;6857;53.484;10.216;2022-08-01T14:09:49;24.10;94.60
13572;DHT22;6857;53.484;10.216;2022-08-01T14:12:16;24.00;95.10
13572;DHT22;6857;53.484;10.216;2022-08-01T14:14:41;23.90;95.30
13572;DHT22;6857;53.484;10.216;2022-08-01T14:17:07;23.70;95.60
13572;DHT22;6857;53.484;10.216;2022-08-01T14:19:32;23.80;95.40
13572;DHT22;6857;53.484;10.216;2022-08-01T14:21:58;23.90;95.90
13572;DHT22;6857;53.484;10.216;2022-08-01T14:24:24;24.20;94.40
13572;DHT22;6857;53.484;10.216;2022-08-01T14:26:51;24.10;94.70
13572;DHT22;6857;53.484;10.216;2022-08-01T14:29:17;24.40;94.50
13572;DHT22;6857;53.484;10.216;2022-08-01T14:31:42;24.70;93.90
13572;DHT22;6857;53.484;10.216;2022-08-01T14:34:08;24.90;93.00
13572;DHT22;6857;53.484;10.216;2022-08-01T14:36:34;24.90;92.70
13572;DHT22;6857;53.484;10.216;2022-08-01T14:38:59;25.20;92.40
13572;DHT22;6857;53.484;10.216;2022-08-01T14:41:25;25.40;91.70
13572;DHT22;6857;53.484;10.216;2022-08-01T14:43:50;25.20;91.20
13572;DHT22;6857;53.484;10.216;2022-08-01T14:46:16;25.30;91.10
13572;DHT22;6857;53.484;10.216;2022-08-01T14:48:42;25.30;91.30
13572;DHT22;6857;53.484;10.216;2022-08-01T14:51:08;25.30;91.20
13572;DHT22;6857;53.484;10.216;2022-08-01T14:53:33;24.70;91.90
13572;DHT22;6857;53.484;10.216;2022-08-01T14:56:02;24.70;92.30
13572;DHT22;6857;53.484;10.216;2022-08-01T14:58:28;25.00;91.80
13572;DHT22;6857;53.484;10.216;2022-08-01T15:00:53;25.10;91.30
13572;DHT22;6857;53.484;10.216;2022-08-01T15:03:20;24.90;91.00
13572;DHT22;6857;53.484;10.216;2022-08-01T15:05:46;24.60;91.00
13572;DHT22;6857;53.484;10.216;2022-08-01T15:08:11;24.50;91.30
13572;DHT22;6857;53.484;10.216;2022-08-01T15:10:37;24.40;91.00
13572;DHT22;6857;53.484;10.216;2022-08-01T15:13:03;24.40;91.60
13572;DHT22;6857;53.484;10.216;2022-08-01T15:15:29;24.60;91.20
13572;DHT22;6857;53.484;10.216;2022-08-01T15:17:54;24.50;91.60
13572;DHT22;6857;53.484;10.216;2022-08-01T15:20:20;24.50;91.70
13572;DHT22;6857;53.484;10.216;2022-08-01T15:22:45;24.20;92.20
13572;DHT22;6857;53.484;10.216;2022-08-01T15:25:12;24.30;91.70
13572;DHT22;6857;53.484;10.216;2022-08-01T15:27:38;24.00;92.40
13572;DHT22;6857;53.484;10.216;2022-08-01T15:30:04;23.80;92.80
13572;DHT22;6857;53.484;10.216;2022-08-01T15:32:30;23.80;93.00
13572;DHT22;6857;53.484;10.216;2022-08-01T15:34:55;23.90;92.30
13572;DHT22;6857;53.484;10.216;2022-08-01T15:37:21;23.80;92.50
13572;DHT22;6857;53.484;10.216;2022-08-01T15:39:47;23.50;92.90
13572;DHT22;6857;53.484;10.216;2022-08-01T15:42:13;23.40;93.40
13572;DHT22;6857;53.484;10.216;2022-08-01T15:44:39;23.50;93.30
13572;DHT22;6857;53.484;10.216;2022-08-01T15:47:06;23.40;93.80
13572;DHT22;6857;53.484;10.216;2022-08-01T15:49:32;23.40;93.70
13572;DHT22;6857;53.484;10.216;2022-08-01T15:51:59;23.50;93.90
13572;DHT22;6857;53.484;10.216;2022-08-01T15:54:25;23.30;94.10
13572;DHT22;6857;53.484;10.216;2022-08-01T15:56:50;23.40;94.00
13572;DHT22;6857;53.484;10.216;2022-08-01T15:59:16;23.30;94.20
13572;DHT22;6857;53.484;10.216;2022-08-01T16:01:42;23.50;94.30
13572;DHT22;6857;53.484;10.216;2022-08-01T16:04:08;23.60;94.20
13572;DHT22;6857;53.484;10.216;2022-08-01T16:06:34;23.70;94.10